createdAt,value
2017-01-09T22:05:25.763Z,2.87
2017-01-09T22:06:26.546Z,2.9
2017-01-09T22:07:27.415Z,2.82
2017-01-09T22:08:28.656Z,2.79
2017-01-09T22:09:29.920Z,2.85
2017-01-09T22:10:30.830Z,2.8
2017-01-09T22:11:31.906Z,2.85
2017-01-09T22:12:32.688Z,2.8
2017-01-09T22:13:33.460Z,2.86
2017-01-09T22:14:34.876Z,2.83
2017-01-09T22:15:36.070Z,2.87
2017-01-09T22:16:37.117Z,2.83
2017-01-09T22:17:37.868Z,2.83
2017-01-09T22:18:38.680Z,2.85
2017-01-09T22:19:39.519Z,2.85
2017-01-09T22:20:40.315Z,2.86
2017-01-09T22:21:41.070Z,2.85
2017-01-09T22:22:41.818Z,2.9
2017-01-09T22:23:42.890Z,2.87
2017-01-09T22:24:44.935Z,2.9
2017-01-09T22:25:45.783Z,2.86
2017-01-09T22:26:47.129Z,2.9
2017-01-09T22:27:47.885Z,2.9
2017-01-09T22:28:48.648Z,2.9
2017-01-09T22:29:49.388Z,2.86
2017-01-09T22:30:50.131Z,2.87
2017-01-09T22:31:51.177Z,2.87
2017-01-09T22:32:51.926Z,2.92
2017-01-09T22:33:52.670Z,2.87
2017-01-09T22:34:53.472Z,2.95
2017-01-09T22:35:54.260Z,2.89
2017-01-09T22:36:54.992Z,2.93
2017-01-09T22:37:55.967Z,2.98
2017-01-09T22:38:57.262Z,2.92
2017-01-09T22:39:57.990Z,2.97
2017-01-09T22:40:58.903Z,2.93
2017-01-09T22:41:59.637Z,2.92
2017-01-09T22:43:00.492Z,2.9
2017-01-09T22:44:01.910Z,2.98
2017-01-09T22:45:02.628Z,2.97
2017-01-09T22:46:03.402Z,2.95
2017-01-09T22:47:04.346Z,2.97
2017-01-09T22:48:05.107Z,2.95
2017-01-09T22:49:06.037Z,2.89
2017-01-09T22:50:07.099Z,2.93
2017-01-09T22:51:07.973Z,2.97
2017-01-09T22:52:08.867Z,3.01
2017-01-09T22:53:09.837Z,2.93
2017-01-09T22:54:10.577Z,2.97
2017-01-09T22:55:11.318Z,2.93
2017-01-09T22:56:12.056Z,2.95
2017-01-09T22:57:12.795Z,2.93
2017-01-09T22:58:13.503Z,2.89
2017-01-09T22:59:14.250Z,3
2017-01-09T23:00:14.999Z,2.97
2017-01-09T23:01:15.726Z,2.87
2017-01-09T23:02:16.491Z,2.89
2017-01-09T23:03:17.223Z,2.9
2017-01-09T23:04:17.973Z,2.95
2017-01-09T23:05:18.724Z,2.92
2017-01-09T23:06:19.444Z,2.98
2017-01-09T23:07:20.163Z,2.97
2017-01-09T23:08:20.888Z,2.98
2017-01-09T23:09:21.602Z,3.03
2017-01-09T23:10:22.315Z,2.97
2017-01-09T23:11:23.043Z,3
2017-01-09T23:12:23.784Z,2.92
2017-01-09T23:13:24.497Z,3.01
2017-01-09T23:14:25.219Z,3.07
2017-01-09T23:15:25.949Z,2.92
2017-01-09T23:16:26.693Z,3.04
2017-01-09T23:17:27.413Z,3.03
2017-01-09T23:18:28.143Z,3.01
2017-01-09T23:19:28.864Z,3.05
2017-01-09T23:20:29.595Z,2.95
2017-01-09T23:21:30.316Z,2.92
2017-01-09T23:22:31.050Z,2.93
2017-01-09T23:23:31.814Z,2.93
2017-01-09T23:24:32.552Z,2.93
2017-01-09T23:25:33.270Z,2.98
2017-01-09T23:26:33.984Z,2.89
2017-01-09T23:27:34.706Z,2.9
2017-01-09T23:28:35.440Z,2.89
2017-01-09T23:29:36.167Z,2.85
2017-01-09T23:30:36.912Z,2.85
2017-01-09T23:31:37.635Z,2.92
2017-01-09T23:32:38.370Z,2.89
2017-01-09T23:33:39.130Z,2.89
2017-01-09T23:34:39.868Z,2.93
2017-01-09T23:35:40.594Z,2.98
2017-01-09T23:36:41.330Z,2.93
2017-01-09T23:37:42.099Z,2.98
2017-01-09T23:38:42.826Z,2.97
2017-01-09T23:39:43.554Z,2.93
2017-01-09T23:40:44.282Z,2.95
2017-01-09T23:41:45.022Z,2.97
2017-01-09T23:42:45.800Z,2.93
2017-01-09T23:43:46.542Z,2.9
2017-01-09T23:44:47.279Z,2.87
2017-01-09T23:45:48.003Z,2.87
2017-01-09T23:46:48.812Z,2.9
2017-01-09T23:47:49.542Z,2.95
2017-01-09T23:48:50.284Z,2.95
2017-01-09T23:49:51.006Z,2.97
2017-01-09T23:50:51.725Z,3.01
2017-01-09T23:51:52.451Z,3
2017-01-09T23:52:53.195Z,3
2017-01-09T23:53:53.948Z,2.98
2017-01-09T23:54:54.715Z,2.97
2017-01-09T23:55:55.439Z,2.92
2017-01-09T23:56:56.152Z,3.01
2017-01-09T23:57:56.883Z,2.98
2017-01-09T23:58:57.627Z,2.93
2017-01-09T23:59:58.347Z,3.01
